Time;durP1;ratioP1;P1;durP2;ratioP2;P2;SDS_P1;SDS_P2;PMS_P1;PMS_P2;Temp;Humidity;BMP_temperature;BMP_pressure;BME280_temperature;BME280_humidity;BME280_pressure;Samples;Min_cycle;Max_cycle;Signal;HPM_P1;HPM_P2
2021/10/18 00:00:47;;;;;;;23.98;14.25;;;;;;;5.49;81.36;100994.65;1814488;77;21811;-61
2021/10/18 00:03:52;;;;;;;23.80;14.85;;;;;;;5.54;81.18;100988.34;1814733;79;21288;-60
2021/10/18 00:06:58;;;;;;;22.37;14.58;;;;;;;5.59;81.01;100986.98;1814682;79;21417;-61
2021/10/18 00:10:03;;;;;;;22.65;14.28;;;;;;;5.64;80.91;100990.17;1814638;77;21205;-62
2021/10/18 00:13:11;;;;;;;23.12;13.93;;;;;;;5.68;80.77;100991.62;1814628;78;21235;-61
2021/10/18 00:16:17;;;;;;;22.52;13.72;;;;;;;5.73;80.66;100981.72;1814635;77;21201;-60
2021/10/18 00:19:23;;;;;;;28.25;14.35;;;;;;;5.76;80.56;100984.17;1814813;77;21363;-60
2021/10/18 00:22:29;;;;;;;20.17;13.25;;;;;;;5.80;80.53;100980.22;1814838;79;21201;-60
2021/10/18 00:25:35;;;;;;;24.07;13.10;;;;;;;5.86;80.56;100991.47;1814698;77;21864;-60
2021/10/18 00:28:43;;;;;;;25.90;14.07;;;;;;;5.87;80.56;100976.88;1814659;79;21520;-60
2021/10/18 00:31:50;;;;;;;42.53;19.00;;;;;;;5.89;80.59;100973.53;1814767;79;21382;-61
2021/10/18 00:34:56;;;;;;;43.95;22.07;;;;;;;5.91;80.56;100973.41;1810985;77;21169;-61
2021/10/18 00:38:03;;;;;;;50.67;24.32;;;;;;;5.93;80.54;100973.63;1814825;79;21323;-60
2021/10/18 00:41:10;;;;;;;51.83;25.15;;;;;;;5.93;80.51;100971.42;1814774;77;21868;-60
2021/10/18 00:44:16;;;;;;;53.00;26.42;;;;;;;5.94;80.47;100974.50;1814841;77;21217;-61
2021/10/18 00:47:28;;;;;;;45.63;22.40;;;;;;;5.95;80.49;100965.34;1814746;79;21725;-61
2021/10/18 00:50:34;;;;;;;52.63;23.43;;;;;;;5.95;80.56;100962.63;1814882;77;21249;-60
2021/10/18 00:53:40;;;;;;;39.90;23.05;;;;;;;5.88;80.40;100964.16;1814926;79;21864;-60
2021/10/18 00:56:46;;;;;;;47.93;23.60;;;;;;;5.79;80.31;100958.98;1814925;79;21390;-60
2021/10/18 00:59:52;;;;;;;42.25;21.17;;;;;;;5.68;80.26;100962.23;1814856;77;21319;-61
2021/10/18 01:02:58;;;;;;;39.35;20.75;;;;;;;5.59;80.48;100964.38;1814646;79;21875;-60
2021/10/18 01:06:04;;;;;;;36.33;19.32;;;;;;;5.49;80.59;100956.16;1814599;77;21217;-60
2021/10/18 01:09:10;;;;;;;36.15;19.62;;;;;;;5.41;80.61;100961.84;1814758;77;21331;-60
2021/10/18 01:12:17;;;;;;;32.50;18.60;;;;;;;5.30;80.70;100960.05;1814670;79;21248;-61
2021/10/18 01:15:24;;;;;;;30.72;17.42;;;;;;;5.23;80.87;100962.05;1814865;77;21364;-60
2021/10/18 01:18:30;;;;;;;32.85;18.75;;;;;;;5.13;80.88;100967.86;1814868;79;21875;-61
2021/10/18 01:21:36;;;;;;;30.27;17.82;;;;;;;5.02;80.83;100968.77;1814787;79;21674;-61
2021/10/18 01:24:43;;;;;;;32.55;16.87;;;;;;;4.93;81.04;100964.07;1814676;77;21927;-60
2021/10/18 01:27:50;;;;;;;32.03;17.02;;;;;;;4.86;81.03;100958.80;1814650;79;21343;-60
2021/10/18 01:30:55;;;;;;;33.60;18.52;;;;;;;4.80;81.14;100967.93;1814735;77;21351;-61
2021/10/18 01:34:01;;;;;;;25.80;16.67;;;;;;;4.74;81.23;100968.44;1814838;79;21335;-62
2021/10/18 01:37:10;;;;;;;38.55;19.87;;;;;;;4.72;81.36;100971.75;1810711;79;21354;-60
2021/10/18 01:40:17;;;;;;;40.50;21.27;;;;;;;4.66;81.54;100969.06;1797774;78;21759;-60
2021/10/18 01:43:22;;;;;;;34.53;20.72;;;;;;;4.67;81.82;100968.55;1796478;78;21380;-60
2021/10/18 01:46:28;;;;;;;36.35;22.27;;;;;;;4.66;81.91;100962.77;1814794;77;21302;-60
2021/10/18 01:49:33;;;;;;;44.30;22.73;;;;;;;4.66;82.10;100962.77;1814758;77;21350;-60
2021/10/18 01:52:41;;;;;;;45.15;23.35;;;;;;;4.63;82.05;100966.57;1814885;79;21248;-61
2021/10/18 01:55:46;;;;;;;37.98;20.77;;;;;;;4.60;82.08;100964.98;1817909;77;21221;-59
2021/10/18 01:58:52;;;;;;;44.70;22.22;;;;;;;4.60;82.16;100970.89;1814868;79;21257;-60
2021/10/18 02:01:57;;;;;;;43.78;22.60;;;;;;;4.60;82.32;100974.47;1814847;79;21264;-61
2021/10/18 02:05:04;;;;;;;47.55;24.52;;;;;;;4.63;82.42;100976.93;1814932;77;21220;-60
2021/10/18 02:08:09;;;;;;;48.63;23.67;;;;;;;4.66;82.54;100976.32;1814757;79;21410;-60
2021/10/18 02:11:15;;;;;;;44.93;23.07;;;;;;;4.76;82.90;100974.61;1814784;77;21232;-60
2021/10/18 02:14:22;;;;;;;38.15;22.10;;;;;;;4.85;83.06;100975.20;1814668;77;21386;-60
2021/10/18 02:17:29;;;;;;;43.20;22.07;;;;;;;4.94;83.00;100975.80;1814724;79;21398;-61
2021/10/18 02:20:34;;;;;;;37.50;21.50;;;;;;;5.01;83.00;100975.67;1814764;77;21255;-61
2021/10/18 02:23:42;;;;;;;40.40;21.40;;;;;;;5.10;83.09;100978.98;1814771;79;21212;-61
2021/10/18 02:26:49;;;;;;;39.70;20.75;;;;;;;5.20;83.14;100977.23;1814768;79;21797;-61
2021/10/18 02:29:56;;;;;;;49.80;25.52;;;;;;;5.29;83.10;100977.81;1814695;77;21343;-60
2021/10/18 02:33:01;;;;;;;65.25;31.80;;;;;;;5.37;83.01;100973.97;1814658;79;21370;-62
2021/10/18 02:36:07;;;;;;;71.75;32.93;;;;;;;5.45;82.83;100976.91;1811694;78;21264;-61
2021/10/18 02:39:14;;;;;;;70.45;30.52;;;;;;;5.52;82.62;100981.69;1814484;77;21387;-61
2021/10/18 02:42:20;;;;;;;71.05;31.75;;;;;;;5.59;82.48;100980.67;1814941;79;21217;-62
2021/10/18 02:45:25;;;;;;;66.07;29.35;;;;;;;5.65;82.26;100973.36;1814860;77;21217;-63
2021/10/18 02:48:32;;;;;;;43.50;22.77;;;;;;;5.69;82.09;100968.05;1814858;79;21328;-62
2021/10/18 02:51:38;;;;;;;48.35;21.87;;;;;;;5.73;81.89;100974.93;1814321;79;21201;-62
2021/10/18 02:54:44;;;;;;;35.78;19.87;;;;;;;5.77;81.75;100973.70;1814395;77;21232;-62
2021/10/18 02:57:50;;;;;;;30.85;16.17;;;;;;;5.77;81.56;100979.13;1814345;79;21343;-61
2021/10/18 03:00:54;;;;;;;28.35;15.48;;;;;;;5.80;81.46;100977.50;1814370;77;21826;-60
2021/10/18 03:04:01;;;;;;;24.65;14.15;;;;;;;5.82;81.29;100974.17;1814849;79;21255;-61
2021/10/18 03:07:08;;;;;;;30.23;15.35;;;;;;;5.83;81.09;100974.07;1814689;79;21340;-63
2021/10/18 03:10:14;;;;;;;24.12;12.78;;;;;;;5.84;80.93;100973.06;1814833;77;21210;-61
2021/10/18 03:13:22;;;;;;;23.10;13.15;;;;;;;5.84;80.76;100966.76;1814532;79;21351;-61
2021/10/18 03:16:27;;;;;;;24.70;13.45;;;;;;;5.85;80.63;100966.63;1814104;77;21232;-61
2021/10/18 03:19:34;;;;;;;25.48;13.78;;;;;;;5.85;80.44;100963.91;1814137;77;21363;-61
2021/10/18 03:22:40;;;;;;;21.27;13.68;;;;;;;5.85;80.31;100967.14;1813849;79;21383;-60
2021/10/18 03:25:46;;;;;;;28.12;15.25;;;;;;;5.85;80.23;100963.91;1813809;77;21783;-60
2021/10/18 03:28:54;;;;;;;23.10;14.07;;;;;;;5.87;80.08;100971.92;1814095;79;21302;-60
2021/10/18 03:31:59;;;;;;;25.12;14.25;;;;;;;5.89;79.95;100969.95;1814344;79;21315;-61
2021/10/18 03:35:05;;;;;;;25.40;13.32;;;;;;;5.91;79.84;100967.97;1814292;77;21260;-61
2021/10/18 03:38:11;;;;;;;21.23;13.75;;;;;;;5.91;79.73;100960.66;1809985;79;21390;-61
2021/10/18 03:41:18;;;;;;;21.73;14.15;;;;;;;5.95;79.66;100963.98;1796329;78;21228;-63
2021/10/18 03:44:23;;;;;;;19.40;13.20;;;;;;;5.95;79.57;100966.20;1814226;77;21355;-62
2021/10/18 03:47:28;;;;;;;22.25;13.68;;;;;;;5.97;79.45;100963.36;1814366;79;21888;-61
2021/10/18 03:50:33;;;;;;;26.65;15.20;;;;;;;5.98;79.38;100962.35;1814383;77;21220;-61
2021/10/18 03:53:39;;;;;;;25.88;17.35;;;;;;;5.98;79.43;100959.15;1815168;79;21343;-61
2021/10/18 03:56:45;;;;;;;27.73;18.25;;;;;;;5.99;79.44;100963.58;1814344;79;21208;-63
2021/10/18 03:59:50;;;;;;;33.42;19.98;;;;;;;6.00;79.56;100961.73;1814201;77;21367;-61
2021/10/18 04:02:57;;;;;;;35.23;19.70;;;;;;;5.99;79.68;100954.06;1814127;79;21581;-62
2021/10/18 04:06:03;;;;;;;39.00;21.75;;;;;;;6.02;79.81;100963.83;1814320;77;21931;-62
2021/10/18 04:09:08;;;;;;;37.53;20.30;;;;;;;6.03;79.82;100960.11;1813969;77;21331;-61
2021/10/18 04:12:13;;;;;;;40.67;20.50;;;;;;;6.06;79.86;100962.55;1814384;79;21236;-62
2021/10/18 04:15:20;;;;;;;35.78;20.05;;;;;;;6.08;79.85;100961.93;1814296;77;21709;-63
2021/10/18 04:18:27;;;;;;;35.43;20.27;;;;;;;6.11;79.79;100967.09;1787568;79;21278;-63
2021/10/18 04:21:32;;;;;;;31.48;20.35;;;;;;;6.14;79.71;100968.19;1755396;81;21411;-67
2021/10/18 04:24:39;;;;;;;35.35;22.37;;;;;;;6.17;79.62;100973.35;1742377;81;21771;-62
2021/10/18 04:27:46;;;;;;;26.25;18.75;;;;;;;6.20;79.55;100973.08;1785132;80;21353;-64
2021/10/18 04:30:53;;;;;;;27.82;16.52;;;;;;;6.25;79.47;100980.86;1785412;80;21175;-61
2021/10/18 04:34:00;;;;;;;57.78;40.40;;;;;;;6.28;79.39;100982.79;1785752;80;21199;-62
2021/10/18 04:37:07;;;;;;;54.42;35.78;;;;;;;6.32;79.30;100985.63;1786100;80;21275;-63
2021/10/18 04:40:15;;;;;;;44.13;31.90;;;;;;;6.35;79.56;100993.51;1753040;80;21207;-63
2021/10/18 04:43:21;;;;;;;37.38;29.23;;;;;;;6.39;80.03;100992.23;1744836;81;21217;-62
2021/10/18 04:46:27;;;;;;;34.75;23.30;;;;;;;6.45;80.23;100992.20;1746965;81;21271;-62
2021/10/18 04:49:34;;;;;;;32.30;19.73;;;;;;;6.49;80.33;100989.56;1745389;81;21201;-60
2021/10/18 04:52:38;;;;;;;29.15;18.75;;;;;;;6.55;80.27;100986.33;1746966;81;21217;-61
2021/10/18 04:55:44;;;;;;;28.38;16.97;;;;;;;6.62;79.93;100985.64;1746703;80;21236;-63
2021/10/18 04:58:49;;;;;;;27.42;17.60;;;;;;;6.70;79.53;100989.91;1746117;81;21243;-63
2021/10/18 05:01:55;;;;;;;33.00;18.45;;;;;;;6.77;79.13;100986.98;1745997;81;21208;-62
2021/10/18 05:05:01;;;;;;;26.25;18.20;;;;;;;6.84;78.79;100994.97;1742659;80;21319;-61
2021/10/18 05:08:13;;;;;;;32.88;19.65;;;;;;;6.90;78.56;100997.62;1743000;82;21717;-63
2021/10/18 05:11:19;;;;;;;27.67;17.07;;;;;;;6.95;78.36;101003.03;1744051;82;22074;-63
2021/10/18 05:14:29;;;;;;;27.60;16.80;;;;;;;7.03;78.16;101004.57;1727694;81;21442;-64
2021/10/18 05:17:36;;;;;;;32.40;17.73;;;;;;;7.08;77.94;100999.58;1757572;81;21429;-62
2021/10/18 05:20:42;;;;;;;28.07;16.27;;;;;;;7.15;77.75;101001.25;1744530;81;21239;-59
2021/10/18 05:26:04;;;;;;;22.67;14.93;;;;;;;7.31;77.37;100994.25;1807995;76;28102;-60
2021/10/18 05:29:11;;;;;;;21.27;14.03;;;;;;;7.29;77.27;100997.61;1779453;79;21193;-59
2021/10/18 05:32:17;;;;;;;30.05;17.95;;;;;;;7.33;77.07;101006.36;1771373;80;21303;-61
2021/10/18 05:35:23;;;;;;;34.40;18.82;;;;;;;7.34;76.92;101006.22;1771792;80;21378;-60
2021/10/18 05:38:28;;;;;;;26.70;17.57;;;;;;;7.36;76.77;101013.76;1771453;80;21243;-59
2021/10/18 05:41:34;;;;;;;22.40;14.43;;;;;;;7.36;76.67;101019.20;1802180;79;21833;-60
2021/10/18 05:44:38;;;;;;;27.32;14.85;;;;;;;7.36;76.63;101023.30;1793683;79;21394;-61
2021/10/18 05:48:06;;;;;;;39.53;23.35;;;;;;;7.35;76.59;101029.75;1804585;79;21358;-60
2021/10/18 05:51:11;;;;;;;28.27;14.80;;;;;;;7.33;76.59;101027.66;1799183;79;21347;-60
2021/10/18 05:54:19;;;;;;;27.95;14.43;;;;;;;7.33;76.57;101029.52;1792868;78;21417;-61
2021/10/18 05:57:27;;;;;;;27.62;16.57;;;;;;;7.31;76.67;101032.38;1771185;80;21244;-61
2021/10/18 06:00:32;;;;;;;26.30;14.93;;;;;;;7.30;76.75;101034.75;1769997;80;21708;-60
2021/10/18 06:03:40;;;;;;;32.25;15.38;;;;;;;7.30;76.70;101035.24;1771483;80;21338;-60
2021/10/18 06:06:45;;;;;;;44.93;27.30;;;;;;;7.31;76.61;101033.73;1771857;80;21161;-61
2021/10/18 06:09:51;;;;;;;47.10;26.93;;;;;;;7.37;76.50;101036.42;1771744;80;21402;-62
2021/10/18 06:12:58;;;;;;;51.68;27.50;;;;;;;7.44;76.39;101041.16;1763856;80;21356;-61
2021/10/18 06:16:03;;;;;;;35.20;22.32;;;;;;;7.54;76.28;101042.05;1771098;80;21352;-61
2021/10/18 06:19:10;;;;;;;25.88;15.50;;;;;;;7.66;76.21;101046.02;1780769;79;21233;-60
2021/10/18 06:22:16;;;;;;;26.23;13.90;;;;;;;7.78;75.86;101043.50;1770887;81;21750;-59
2021/10/18 06:25:24;;;;;;;23.25;12.88;;;;;;;7.92;75.50;101043.08;1773118;79;21374;-58
2021/10/18 06:28:30;;;;;;;20.37;11.33;;;;;;;8.07;74.93;101045.75;1796663;79;21352;-60
2021/10/18 06:31:38;;;;;;;18.35;9.48;;;;;;;8.23;74.20;101048.80;1791458;79;21351;-59
2021/10/18 06:34:47;;;;;;;16.67;8.88;;;;;;;8.38;73.10;101041.88;1790523;79;21380;-60
2021/10/18 06:37:54;;;;;;;18.62;7.47;;;;;;;8.56;71.35;101039.61;1802765;79;21177;-60
2021/10/18 06:41:00;;;;;;;11.55;6.75;;;;;;;8.72;70.04;101041.22;1800741;79;21418;-60
2021/10/18 06:44:05;;;;;;;14.80;7.90;;;;;;;8.90;69.05;101042.68;1790324;79;21822;-59
2021/10/18 06:47:11;;;;;;;12.40;6.80;;;;;;;9.07;67.81;101039.16;1787623;79;21268;-60
2021/10/18 06:50:17;;;;;;;16.57;6.83;;;;;;;9.22;66.29;101046.36;1790686;79;21244;-61
2021/10/18 06:53:32;;;;;;;14.23;7.22;;;;;;;9.33;64.84;101036.09;1794586;79;21332;-60
2021/10/18 06:56:33;;;;;;;15.70;6.45;;;;;;;9.47;64.35;101041.05;1779064;79;21193;-61
2021/10/18 06:59:39;;;;;;;18.12;8.30;;;;;;;9.63;63.83;101043.97;1801691;79;21198;-59
2021/10/18 07:02:43;;;;;;;12.20;7.67;;;;;;;9.75;62.73;101036.42;1802081;79;21601;-59
2021/10/18 07:05:52;;;;;;;9.80;6.25;;;;;;;9.86;61.94;101045.23;1800108;79;21252;-61
2021/10/18 07:08:59;;;;;;;13.38;6.72;;;;;;;9.96;61.18;101036.95;1783898;79;21158;-60
2021/10/18 07:12:07;;;;;;;9.53;5.70;;;;;;;10.04;59.99;101042.02;1769884;81;21216;-58
2021/10/18 07:15:13;;;;;;;15.25;6.65;;;;;;;10.08;59.67;101043.47;1770051;81;21224;-60
2021/10/18 07:18:20;;;;;;;13.53;5.97;;;;;;;10.12;59.30;101038.52;1763112;81;21283;-59
2021/10/18 07:21:26;;;;;;;11.83;6.60;;;;;;;10.11;58.91;101039.55;1780422;79;21209;-60
2021/10/18 07:24:31;;;;;;;12.30;6.00;;;;;;;10.14;58.77;101041.47;1777439;79;21228;-59
2021/10/18 07:27:37;;;;;;;11.03;5.85;;;;;;;10.18;58.17;101036.02;1787454;79;21197;-61
2021/10/18 07:30:52;;;;;;;11.75;5.50;;;;;;;10.24;57.88;101036.75;1796651;79;21923;-59
2021/10/18 07:34:02;;;;;;;14.07;6.25;;;;;;;10.34;57.08;101030.69;1799005;79;22188;-60
2021/10/18 07:37:08;;;;;;;11.12;6.12;;;;;;;10.48;56.86;101030.11;1791296;79;21203;-60
2021/10/18 07:40:13;;;;;;;14.18;5.65;;;;;;;10.65;55.86;101024.25;1778379;79;21718;-59
2021/10/18 07:43:18;;;;;;;12.10;5.75;;;;;;;10.80;55.21;101013.58;1790739;79;21174;-59
2021/10/18 07:46:29;;;;;;;13.18;6.25;;;;;;;10.83;54.56;101015.98;1793201;79;21216;-60
2021/10/18 07:49:40;;;;;;;11.22;5.50;;;;;;;10.82;53.90;101012.87;1783936;79;21348;-59
2021/10/18 07:52:46;;;;;;;14.43;5.78;;;;;;;10.86;53.66;101015.66;1779516;79;21200;-60
2021/10/18 07:55:53;;;;;;;12.05;5.50;;;;;;;10.97;53.46;101018.12;1781951;79;21248;-59
2021/10/18 07:59:00;;;;;;;10.48;5.80;;;;;;;11.08;53.05;101017.83;1784989;79;21205;-57
2021/10/18 08:02:05;;;;;;;11.18;5.75;;;;;;;11.22;52.93;101018.08;1788755;79;21344;-60
2021/10/18 08:05:16;;;;;;;12.03;6.12;;;;;;;11.35;52.55;101017.63;1786794;79;21702;-61
2021/10/18 08:08:30;;;;;;;10.70;5.08;;;;;;;11.46;52.01;101014.58;1783185;79;21339;-60
2021/10/18 08:11:32;;;;;;;14.53;6.65;;;;;;;11.51;51.49;101013.03;1786840;79;21233;-58
2021/10/18 08:14:38;;;;;;;11.40;5.60;;;;;;;11.53;51.28;101021.96;1793795;79;21871;-60
2021/10/18 08:17:44;;;;;;;10.20;5.50;;;;;;;11.59;50.84;101008.11;1775709;80;21197;-60
2021/10/18 08:20:50;;;;;;;12.45;5.70;;;;;;;11.68;50.70;101012.11;1770461;79;21212;-59
2021/10/18 08:23:56;;;;;;;9.75;5.33;;;;;;;11.75;50.45;101013.14;1788003;79;21245;-60
2021/10/18 08:27:01;;;;;;;10.55;4.80;;;;;;;11.84;49.86;101014.86;1783532;79;21232;-59
2021/10/18 08:30:07;;;;;;;10.15;6.37;;;;;;;11.86;49.31;101012.82;1744901;81;21203;-58
2021/10/18 08:33:13;;;;;;;19.32;8.58;;;;;;;11.82;49.50;101016.94;1768883;80;21179;-60
2021/10/18 08:36:19;;;;;;;13.15;6.58;;;;;;;11.75;49.50;101012.27;1768718;80;21785;-63
2021/10/18 08:44:14;;;;;;;7.00;4.72;;;;;;;11.64;49.17;101019.44;1788235;79;21228;-61
2021/10/18 08:45:48;;;;;;;17.30;5.90;;;;;;;11.55;48.92;101009.45;1781706;79;21200;-59
2021/10/18 08:49:02;;;;;;;12.63;7.33;;;;;;;11.53;49.29;101016.98;1801708;79;21169;-60
2021/10/18 08:52:08;;;;;;;8.45;4.53;;;;;;;11.52;49.51;101014.77;1801403;79;21618;-60
2021/10/18 08:55:14;;;;;;;11.38;4.50;;;;;;;11.58;49.71;101014.09;1802043;79;21371;-59
2021/10/18 08:58:19;;;;;;;8.70;4.58;;;;;;;11.71;49.40;101015.02;1787232;79;21316;-60
2021/10/18 09:01:27;;;;;;;8.18;4.55;;;;;;;11.79;48.99;101010.42;1801667;79;21351;-61
2021/10/18 09:04:40;;;;;;;14.10;4.80;;;;;;;11.86;48.59;101005.12;1798145;79;21319;-64
2021/10/18 09:07:47;;;;;;;8.00;4.65;;;;;;;11.97;48.47;100997.40;1798676;79;21399;-59
2021/10/18 09:10:58;;;;;;;8.95;4.45;;;;;;;12.14;48.15;101002.41;1770700;80;21708;-62
2021/10/18 09:14:09;;;;;;;10.05;4.45;;;;;;;12.22;47.55;101002.41;1762016;80;21209;-59
2021/10/18 09:17:14;;;;;;;8.53;4.55;;;;;;;12.27;47.26;101000.02;1771545;80;21184;-60
2021/10/18 09:20:32;;;;;;;9.50;4.80;;;;;;;12.30;47.00;100988.69;1770618;81;21311;-60
2021/10/18 09:23:40;;;;;;;8.83;4.62;;;;;;;12.30;47.17;100990.56;1787826;79;21252;-61
2021/10/18 09:26:47;;;;;;;8.90;4.40;;;;;;;12.28;47.05;100990.73;1801971;79;21838;-60
2021/10/18 09:29:57;;;;;;;10.82;4.60;;;;;;;12.29;47.07;100981.45;1800989;79;21355;-61
2021/10/18 09:33:03;;;;;;;9.35;4.37;;;;;;;12.33;47.01;100982.84;1801009;79;21224;-61
2021/10/18 09:36:17;;;;;;;9.78;4.28;;;;;;;12.39;47.08;100986.27;1801325;79;21343;-59
2021/10/18 09:39:33;;;;;;;8.08;3.72;;;;;;;12.53;46.80;100989.68;1801359;79;21328;-60
2021/10/18 09:42:39;;;;;;;8.73;4.70;;;;;;;12.59;46.23;100981.28;1802029;79;21161;-60
2021/10/18 09:45:44;;;;;;;7.90;3.75;;;;;;;12.57;46.06;100977.33;1802147;79;21687;-60
2021/10/18 10:54:07;;;;;;;6.87;3.12;;;;;;;12.24;43.81;100931.70;1767897;81;20252;-58
2021/10/18 10:57:13;;;;;;;6.78;3.08;;;;;;;12.17;43.96;100931.20;1768819;80;21181;-58
2021/10/18 11:00:41;;;;;;;5.90;3.60;;;;;;;12.15;43.78;100927.25;1771659;79;21173;-58
2021/10/18 11:03:49;;;;;;;9.15;3.60;;;;;;;12.11;43.77;100927.27;1769493;80;21581;-58
2021/10/18 11:06:53;;;;;;;9.90;5.28;;;;;;;12.10;44.03;100931.56;1769867;81;21177;-58
2021/10/18 11:10:03;;;;;;;6.65;3.67;;;;;;;12.10;44.23;100919.22;1769691;81;21705;-60
2021/10/18 11:13:13;;;;;;;8.20;3.65;;;;;;;12.14;44.39;100916.45;1769833;80;21236;-61
2021/10/18 11:16:20;;;;;;;8.60;3.58;;;;;;;12.17;44.23;100914.73;1769425;80;21212;-60
2021/10/18 11:19:31;;;;;;;7.08;4.17;;;;;;;12.20;43.97;100912.50;1770733;79;21240;-60
2021/10/18 11:22:49;;;;;;;9.23;5.10;;;;;;;12.27;44.17;100902.55;1770111;81;21292;-58
2021/10/18 11:25:56;;;;;;;8.58;3.65;;;;;;;12.43;44.18;100905.78;1779487;79;21730;-59
2021/10/18 11:29:06;;;;;;;8.50;4.12;;;;;;;12.65;43.58;100911.39;1770056;80;21193;-60
2021/10/18 11:32:15;;;;;;;8.68;5.10;;;;;;;12.78;43.13;100906.17;1768788;79;21723;-61
2021/10/18 11:35:27;;;;;;;10.35;4.12;;;;;;;12.77;42.89;100909.97;1780750;79;21740;-59
2021/10/18 11:38:34;;;;;;;10.88;4.30;;;;;;;12.66;43.01;100912.23;1769939;80;21714;-58
2021/10/18 11:41:41;;;;;;;9.65;4.72;;;;;;;12.58;43.48;100906.25;1770017;80;21346;-60
2021/10/18 11:44:59;;;;;;;7.17;4.12;;;;;;;12.51;43.90;100904.39;1788637;79;21763;-59
2021/10/18 11:48:20;;;;;;;10.28;4.25;;;;;;;12.47;44.45;100899.76;1800796;79;21335;-61
2021/10/18 11:51:26;;;;;;;9.38;4.45;;;;;;;12.42;44.71;100904.05;1801254;79;21857;-61
2021/10/18 11:54:33;;;;;;;8.58;4.15;;;;;;;12.39;44.77;100896.16;1800792;79;21196;-60
2021/10/18 11:57:42;;;;;;;8.43;4.25;;;;;;;12.43;44.86;100898.91;1800832;79;21174;-60
2021/10/18 12:00:50;;;;;;;9.43;5.05;;;;;;;12.48;44.76;100894.59;1793121;79;21197;-60
2021/10/18 12:03:56;;;;;;;10.08;4.62;;;;;;;12.48;45.01;100901.45;1800134;79;21853;-60
2021/10/18 12:07:03;;;;;;;7.72;4.60;;;;;;;12.47;45.12;100888.77;1784970;79;21200;-60
2021/10/18 12:10:34;;;;;;;8.13;4.30;;;;;;;12.43;45.11;100894.26;1769646;79;21682;-58
2021/10/18 12:13:47;;;;;;;7.78;3.80;;;;;;;12.39;45.18;100888.80;1770252;80;21173;-60
2021/10/18 12:16:53;;;;;;;7.15;3.72;;;;;;;12.36;44.88;100894.64;1770525;80;21176;-59
2021/10/18 12:20:00;;;;;;;10.50;4.10;;;;;;;12.38;44.73;100888.97;1770785;80;21209;-60
2021/10/18 12:23:16;;;;;;;7.65;4.83;;;;;;;12.41;44.36;100885.36;1770154;80;21182;-61
2021/10/18 12:26:36;;;;;;;5.85;3.55;;;;;;;12.44;44.48;100888.26;1771098;80;21725;-59
2021/10/18 12:29:45;;;;;;;8.90;3.83;;;;;;;12.43;44.30;100888.77;1768240;80;21216;-60
2021/10/18 12:32:54;;;;;;;10.48;4.15;;;;;;;12.41;43.87;100882.62;1768571;80;21272;-59
2021/10/18 12:36:06;;;;;;;9.03;4.10;;;;;;;12.39;44.03;100886.05;1770335;80;21209;-57
2021/10/18 12:39:10;;;;;;;10.98;4.67;;;;;;;12.40;43.99;100889.66;1770244;80;21188;-58
2021/10/18 12:42:31;;;;;;;11.60;4.47;;;;;;;12.36;44.18;100886.40;1770385;80;21189;-59
2021/10/18 12:45:42;;;;;;;8.58;4.35;;;;;;;12.30;44.57;100883.49;1770907;80;21749;-58
2021/10/18 12:48:48;;;;;;;11.80;4.78;;;;;;;12.27;44.85;100887.96;1782398;79;21317;-60
2021/10/18 12:51:57;;;;;;;9.55;5.60;;;;;;;12.24;45.35;100878.17;1770054;80;21864;-57
2021/10/18 12:55:05;;;;;;;13.60;5.85;;;;;;;12.26;45.37;100873.91;1789195;79;21890;-60
2021/10/18 12:58:15;;;;;;;13.62;6.15;;;;;;;12.21;45.50;100877.15;1787847;79;21177;-60
2021/10/18 13:01:24;;;;;;;9.88;5.33;;;;;;;12.15;46.01;100874.23;1793922;79;21351;-61
2021/10/18 13:04:33;;;;;;;10.23;7.28;;;;;;;12.12;46.70;100875.97;1739219;81;21693;-57
2021/10/18 13:07:40;;;;;;;16.97;9.38;;;;;;;12.05;47.17;100878.54;1802480;79;21351;-59
2021/10/18 13:10:50;;;;;;;14.30;6.87;;;;;;;11.99;47.31;100868.27;1802614;79;21174;-59
2021/10/18 13:13:58;;;;;;;9.98;5.83;;;;;;;11.94;47.46;100874.78;1795772;79;21694;-59
2021/10/18 13:17:05;;;;;;;14.18;7.37;;;;;;;11.86;47.54;100870.70;1802316;79;21327;-62
2021/10/18 13:20:14;;;;;;;12.82;8.38;;;;;;;11.80;47.35;100872.73;1793533;79;21351;-57
2021/10/18 13:23:27;;;;;;;13.08;7.62;;;;;;;11.76;47.58;100885.95;1753623;81;21228;-59
2021/10/18 13:26:32;;;;;;;13.22;7.55;;;;;;;11.69;47.89;100874.45;1774006;79;21367;-58
2021/10/18 13:29:40;;;;;;;15.10;8.00;;;;;;;11.63;48.07;100880.12;1771130;80;21852;-58
2021/10/18 13:32:47;;;;;;;13.72;6.85;;;;;;;11.57;48.46;100882.65;1770160;80;21260;-59
2021/10/18 13:35:54;;;;;;;14.25;5.78;;;;;;;11.48;48.81;100873.55;1770703;80;21800;-58
2021/10/18 13:39:01;;;;;;;11.15;6.12;;;;;;;11.44;49.10;100883.66;1771251;80;21355;-59
2021/10/18 13:42:10;;;;;;;12.80;7.25;;;;;;;11.34;49.39;100873.34;1771062;81;21327;-60
2021/10/18 13:45:17;;;;;;;13.35;7.42;;;;;;;11.28;49.77;100871.28;1770818;80;21390;-59
2021/10/18 13:48:24;;;;;;;13.48;7.97;;;;;;;11.21;50.23;100877.11;1770380;80;21954;-60
2021/10/18 13:51:28;;;;;;;29.60;16.05;;;;;;;11.13;50.68;100878.46;1769535;80;21209;-61
2021/10/18 13:54:35;;;;;;;16.02;10.08;;;;;;;11.10;51.08;100884.28;1781125;79;21283;-62
2021/10/18 13:57:40;;;;;;;18.30;9.83;;;;;;;11.07;51.44;100879.14;1782467;79;21189;-59
2021/10/18 14:00:46;;;;;;;16.87;8.38;;;;;;;11.03;51.80;100886.83;1780811;79;21253;-59
2021/10/18 14:03:52;;;;;;;14.58;7.67;;;;;;;10.99;52.12;100885.42;1778681;79;21205;-59
2021/10/18 14:06:58;;;;;;;15.13;7.92;;;;;;;10.95;52.48;100887.30;1769875;80;21524;-61
2021/10/18 14:10:04;;;;;;;20.23;11.05;;;;;;;10.93;52.77;100887.47;1769467;80;21277;-59
2021/10/18 14:13:12;;;;;;;14.47;8.93;;;;;;;10.88;53.25;100891.20;1769605;80;21668;-59
2021/10/18 14:16:17;;;;;;;23.35;13.22;;;;;;;10.84;53.66;100882.13;1762232;80;21258;-59
2021/10/18 14:19:24;;;;;;;41.02;20.10;;;;;;;10.78;53.99;100886.90;1769695;80;21254;-60
2021/10/18 14:22:30;;;;;;;31.12;15.95;;;;;;;10.74;54.40;100889.59;1773219;79;21706;-62
2021/10/18 14:25:38;;;;;;;18.82;11.38;;;;;;;10.69;54.80;100891.47;1771922;79;21732;-60
2021/10/18 14:28:43;;;;;;;17.57;10.60;;;;;;;10.65;55.15;100890.59;1769645;81;21259;-60
2021/10/18 14:31:54;;;;;;;20.37;10.55;;;;;;;10.61;55.40;100894.70;1769749;81;21828;-60
2021/10/18 14:35:00;;;;;;;19.55;10.28;;;;;;;10.57;55.65;100892.79;1788459;79;21390;-62
2021/10/18 14:38:08;;;;;;;20.32;12.05;;;;;;;10.53;55.93;100907.31;1803496;79;21354;-61
2021/10/18 14:41:14;;;;;;;25.90;14.33;;;;;;;10.50;56.18;100906.77;1787790;79;21347;-60
2021/10/18 14:44:19;;;;;;;28.15;14.95;;;;;;;10.47;56.44;100907.09;1771815;80;21683;-61
2021/10/18 14:47:34;;;;;;;21.57;13.32;;;;;;;10.44;56.73;100908.30;1771488;80;21394;-62
2021/10/18 14:50:39;;;;;;;32.00;14.80;;;;;;;10.41;56.98;100906.38;1773603;79;21196;-62
2021/10/18 14:53:50;;;;;;;18.87;11.65;;;;;;;10.38;57.19;100915.79;1794535;79;21368;-61
2021/10/18 14:56:55;;;;;;;26.05;12.15;;;;;;;10.35;57.39;100916.08;1802449;79;21319;-61
2021/10/18 15:00:00;;;;;;;20.02;11.40;;;;;;;10.31;57.66;100910.59;1771103;80;21355;-60
2021/10/18 15:03:06;;;;;;;17.70;11.12;;;;;;;10.27;57.88;100917.42;1771868;80;21181;-62
2021/10/18 15:06:14;;;;;;;24.30;12.30;;;;;;;10.24;58.08;100918.25;1788925;79;21721;-60
2021/10/18 15:09:21;;;;;;;34.45;18.65;;;;;;;10.20;58.27;100910.87;1803425;79;21857;-60
2021/10/18 15:12:28;;;;;;;29.90;14.33;;;;;;;10.18;58.48;100910.70;1803289;79;21361;-60
2021/10/18 15:15:34;;;;;;;30.48;16.40;;;;;;;10.14;58.71;100922.45;1799743;79;21367;-63
2021/10/18 15:18:43;;;;;;;22.10;12.73;;;;;;;10.10;58.96;100925.15;1764595;81;21161;-62
2021/10/18 15:21:49;;;;;;;32.48;17.17;;;;;;;10.05;59.16;100919.26;1778473;79;21901;-63
2021/10/18 15:24:55;;;;;;;36.90;18.77;;;;;;;10.04;59.33;100928.99;1779263;79;21201;-61
2021/10/18 15:28:01;;;;;;;33.15;18.57;;;;;;;10.01;59.52;100937.02;1803998;79;21307;-62
2021/10/18 15:31:09;;;;;;;34.67;21.33;;;;;;;9.99;59.70;100942.31;1804118;79;21351;-62
2021/10/18 15:34:15;;;;;;;46.30;24.50;;;;;;;9.95;59.87;100940.39;1803858;79;21221;-61